createdAt,value
2023-03-06T00:00:26.361Z,28.23
2023-03-06T00:02:55.170Z,28.23
2023-03-06T00:05:24.495Z,26.08
2023-03-06T00:07:53.190Z,26.90
2023-03-06T00:10:24.622Z,27.08
2023-03-06T00:12:54.009Z,27.67
2023-03-06T00:15:25.655Z,29.35
2023-03-06T00:17:55.037Z,28.77
2023-03-06T00:20:24.736Z,28.65
2023-03-06T00:22:53.486Z,39.85
2023-03-06T00:25:22.717Z,29.27
2023-03-06T00:27:52.179Z,31.15
2023-03-06T00:30:24.933Z,30.95
2023-03-06T00:32:54.735Z,33.03
2023-03-06T00:35:23.622Z,31.73
2023-03-06T00:37:52.453Z,30.95
2023-03-06T00:40:22.537Z,25.92
2023-03-06T00:42:51.339Z,27.42
2023-03-06T00:45:23.093Z,25.67
2023-03-06T00:47:51.942Z,28.08
2023-03-06T00:50:20.860Z,26.77
2023-03-06T00:52:49.637Z,25.65
2023-03-06T00:55:18.664Z,30.10
2023-03-06T00:57:47.626Z,27.42
2023-03-06T01:00:17.276Z,25.65
2023-03-06T01:02:47.384Z,24.88
2023-03-06T01:05:16.284Z,28.27
2023-03-06T01:07:45.004Z,26.77
2023-03-06T01:10:14.049Z,31.90
2023-03-06T01:12:42.882Z,26.55
2023-03-06T01:15:13.959Z,27.65
2023-03-06T01:17:42.792Z,28.23
2023-03-06T01:20:15.776Z,25.08
2023-03-06T01:22:44.565Z,27.70
2023-03-06T01:25:13.606Z,28.75
2023-03-06T01:27:42.416Z,26.77
2023-03-06T01:30:13.816Z,27.40
2023-03-06T01:32:42.707Z,29.30
2023-03-06T01:35:13.760Z,27.30
2023-03-06T01:37:42.694Z,26.95
2023-03-06T01:40:13.632Z,26.13
2023-03-06T01:42:43.359Z,29.25
2023-03-06T01:45:45.380Z,28.15
2023-03-06T01:48:14.135Z,30.60
2023-03-06T01:50:44.658Z,29.73
2023-03-06T01:53:14.517Z,26.20
2023-03-06T01:55:43.285Z,25.13
2023-03-06T01:58:16.894Z,27.42
2023-03-06T02:00:45.773Z,26.42
2023-03-06T02:03:21.480Z,28.88
2023-03-06T02:05:52.137Z,25.67
2023-03-06T02:08:24.331Z,27.20
2023-03-06T02:11:14.053Z,26.17
2023-03-06T02:13:44.001Z,27.02
2023-03-06T02:16:15.785Z,28.23
2023-03-06T02:18:46.874Z,28.63
2023-03-06T02:21:22.024Z,30.73
2023-03-06T02:24:00.708Z,31.33
2023-03-06T02:26:32.813Z,29.60
2023-03-06T02:29:01.979Z,32.67
2023-03-06T02:31:33.897Z,31.17
2023-03-06T02:34:29.811Z,36.55
2023-03-06T02:37:02.103Z,30.73
2023-03-06T02:39:35.057Z,30.90
2023-03-06T02:42:05.584Z,36.05
2023-03-06T02:44:35.711Z,31.67
2023-03-06T02:47:04.370Z,32.63
2023-03-06T02:49:33.204Z,30.05
2023-03-06T02:52:02.281Z,31.95
2023-03-06T02:54:31.310Z,34.70
2023-03-06T02:57:00.137Z,34.80
2023-03-06T02:59:30.264Z,34.83
2023-03-06T03:01:59.681Z,33.30
2023-03-06T03:04:28.381Z,35.03
2023-03-06T03:06:58.538Z,35.92
2023-03-06T03:09:28.399Z,35.50
2023-03-06T03:11:59.206Z,35.13
2023-03-06T03:14:29.369Z,35.72
2023-03-06T03:16:58.157Z,38.90
2023-03-06T03:19:28.774Z,32.60
2023-03-06T03:21:58.085Z,34.10
2023-03-06T03:24:27.150Z,35.22
2023-03-06T03:26:56.861Z,41.03
2023-03-06T03:29:26.548Z,35.70
2023-03-06T03:31:57.759Z,37.83
2023-03-06T03:34:28.367Z,42.20
2023-03-06T03:36:57.653Z,37.47
2023-03-06T03:39:26.529Z,38.67
2023-03-06T03:41:55.242Z,36.90
2023-03-06T03:44:24.563Z,33.70
2023-03-06T03:46:53.929Z,38.13
2023-03-06T03:49:26.193Z,38.00
2023-03-06T03:51:55.579Z,35.25
2023-03-06T03:54:26.441Z,34.55
2023-03-06T03:56:56.055Z,38.40
2023-03-06T03:59:28.994Z,35.35
2023-03-06T04:02:11.284Z,38.22
2023-03-06T04:04:50.812Z,41.00
2023-03-06T04:07:19.714Z,39.45
2023-03-06T04:09:48.480Z,37.55
2023-03-06T04:12:18.181Z,39.10
2023-03-06T04:14:47.008Z,36.92
2023-03-06T04:17:15.938Z,37.03
2023-03-06T04:19:44.982Z,41.80
2023-03-06T04:22:15.245Z,38.88
2023-03-06T04:24:44.596Z,36.42
2023-03-06T04:27:13.620Z,35.03
2023-03-06T04:29:42.433Z,39.92
2023-03-06T04:32:11.526Z,41.63
2023-03-06T04:34:41.372Z,37.13
2023-03-06T04:37:19.208Z,36.65
2023-03-06T04:39:48.356Z,36.75
2023-03-06T04:42:17.219Z,40.38
2023-03-06T04:44:46.393Z,37.83
2023-03-06T04:47:15.859Z,34.85
2023-03-06T04:49:45.650Z,37.58
2023-03-06T04:52:15.973Z,37.22
2023-03-06T04:54:46.056Z,34.13
2023-03-06T04:57:15.230Z,34.58
2023-03-06T04:59:43.895Z,37.75
2023-03-06T05:02:12.677Z,33.13
2023-03-06T05:04:41.491Z,35.35
2023-03-06T05:07:10.284Z,33.58
2023-03-06T05:09:40.400Z,34.88
2023-03-06T05:12:09.606Z,35.88
2023-03-06T05:14:38.384Z,30.20
2023-03-06T05:17:07.186Z,41.33
2023-03-06T05:19:35.940Z,33.10
2023-03-06T05:22:05.036Z,38.42
2023-03-06T05:24:33.834Z,35.20
2023-03-06T05:27:04.053Z,32.63
2023-03-06T05:29:32.701Z,37.30
2023-03-06T05:32:01.645Z,35.50
2023-03-06T05:34:30.510Z,38.15
2023-03-06T05:36:59.253Z,37.63
2023-03-06T05:39:29.156Z,33.28
2023-03-06T05:41:58.031Z,31.88
2023-03-06T05:44:32.205Z,35.22
2023-03-06T05:47:01.398Z,40.33
2023-03-06T05:49:33.718Z,38.88
2023-03-06T05:52:03.970Z,43.33
2023-03-06T05:54:32.996Z,38.78
2023-03-06T05:57:02.121Z,34.45
2023-03-06T05:59:33.118Z,44.08
2023-03-06T06:02:03.945Z,59.13
2023-03-06T06:04:32.967Z,32.25
2023-03-06T06:07:02.500Z,38.70
2023-03-06T06:09:31.555Z,35.75
2023-03-06T06:12:02.524Z,36.75
2023-03-06T06:14:35.381Z,43.60
2023-03-06T06:17:04.913Z,45.70
2023-03-06T06:19:33.856Z,41.97
2023-03-06T06:22:03.846Z,37.30
2023-03-06T06:24:33.181Z,44.58
2023-03-06T06:27:03.926Z,34.72
2023-03-06T06:29:34.717Z,35.67
2023-03-06T06:32:03.662Z,43.75
2023-03-06T06:34:32.472Z,44.00
2023-03-06T06:37:01.168Z,36.05
2023-03-06T06:39:30.471Z,31.35
2023-03-06T06:42:16.088Z,32.75
2023-03-06T06:44:49.459Z,36.42
2023-03-06T06:47:22.795Z,37.00
2023-03-06T06:49:55.037Z,35.60
2023-03-06T06:52:24.668Z,34.58
2023-03-06T06:54:53.914Z,38.50
2023-03-06T06:57:22.949Z,40.55
2023-03-06T06:59:54.112Z,39.30
2023-03-06T07:02:23.096Z,43.95
2023-03-06T07:05:03.692Z,36.83
2023-03-06T07:07:36.571Z,42.83
2023-03-06T07:10:07.776Z,37.80
2023-03-06T07:12:36.688Z,38.10
2023-03-06T07:15:08.581Z,38.58
2023-03-06T07:17:37.575Z,43.78
2023-03-06T07:20:07.230Z,36.83
2023-03-06T07:22:48.664Z,37.88
2023-03-06T07:25:19.921Z,48.85
2023-03-06T07:27:53.795Z,39.63
2023-03-06T07:30:25.320Z,45.13
2023-03-06T07:32:55.389Z,39.92
2023-03-06T07:35:24.902Z,41.85
2023-03-06T07:37:54.162Z,39.78
2023-03-06T07:40:23.219Z,41.92
2023-03-06T07:42:56.539Z,40.63
2023-03-06T07:45:37.479Z,40.17
2023-03-06T07:48:06.913Z,37.97
2023-03-06T07:50:35.619Z,44.40
2023-03-06T07:53:04.500Z,42.08
2023-03-06T07:55:33.246Z,35.65
2023-03-06T07:58:02.124Z,38.90
2023-03-06T08:00:31.012Z,38.85
2023-03-06T08:03:01.239Z,37.85
2023-03-06T08:05:30.160Z,37.92
2023-03-06T08:07:58.957Z,43.88
2023-03-06T08:10:27.866Z,42.95
2023-03-06T08:12:56.766Z,42.65
2023-03-06T08:15:25.711Z,50.80
2023-03-06T08:17:54.569Z,38.28
2023-03-06T08:20:24.815Z,42.53
2023-03-06T08:22:53.753Z,36.00
2023-03-06T08:25:22.926Z,37.20
2023-03-06T08:27:51.773Z,34.47
2023-03-06T08:30:21.528Z,35.90
2023-03-06T08:32:50.353Z,38.63
2023-03-06T08:35:19.169Z,35.13
2023-03-06T08:37:49.425Z,35.65
2023-03-06T08:40:18.334Z,35.13
2023-03-06T08:42:49.048Z,36.05
2023-03-06T08:45:17.993Z,34.83
2023-03-06T08:47:46.912Z,44.33
2023-03-06T08:50:15.769Z,34.03
2023-03-06T08:52:44.671Z,33.30
2023-03-06T08:55:15.233Z,34.58
2023-03-06T08:57:44.004Z,34.17
2023-03-06T09:00:14.313Z,35.10
2023-03-06T09:02:43.213Z,32.47
2023-03-06T09:05:12.504Z,35.80
2023-03-06T09:07:41.464Z,35.95
2023-03-06T09:10:17.464Z,34.47
2023-03-06T09:12:50.839Z,36.75
2023-03-06T09:15:22.177Z,35.85
2023-03-06T09:17:51.912Z,38.17
2023-03-06T09:20:21.065Z,34.72
2023-03-06T09:22:50.095Z,33.60
2023-03-06T09:25:22.489Z,37.80
2023-03-06T09:28:08.627Z,36.60
2023-03-06T09:30:42.099Z,35.40
2023-03-06T09:33:11.184Z,39.25
2023-03-06T09:35:44.529Z,33.55
2023-03-06T09:38:13.303Z,34.13
2023-03-06T09:41:01.153Z,42.83
2023-03-06T09:43:32.227Z,36.83
2023-03-06T09:46:01.313Z,33.72
2023-03-06T09:48:36.861Z,35.28
2023-03-06T09:51:11.242Z,38.00
2023-03-06T09:53:56.976Z,35.10
2023-03-06T09:56:32.166Z,32.95
2023-03-06T09:59:08.246Z,31.17
2023-03-06T10:01:40.999Z,37.17
2023-03-06T10:04:23.137Z,33.60
2023-03-06T10:06:57.247Z,31.27
2023-03-06T10:09:28.948Z,36.25
2023-03-06T10:12:02.180Z,31.40
2023-03-06T10:14:38.157Z,37.08
2023-03-06T10:17:14.245Z,34.08
2023-03-06T10:19:43.657Z,32.03
2023-03-06T10:22:24.663Z,28.17
2023-03-06T10:24:58.543Z,29.05
2023-03-06T10:27:38.951Z,36.53
2023-03-06T10:30:25.113Z,35.50
2023-03-06T10:32:58.608Z,35.88
2023-03-06T10:35:32.414Z,38.72
2023-03-06T10:38:06.184Z,32.35
2023-03-06T10:40:44.876Z,33.40
2023-03-06T10:45:49.860Z,28.55
2023-03-06T10:48:24.193Z,29.52
2023-03-06T10:50:54.832Z,34.17
2023-03-06T10:53:26.808Z,31.85
2023-03-06T10:55:57.466Z,30.48
2023-03-06T10:58:29.563Z,28.55
2023-03-06T11:01:04.357Z,34.08
2023-03-06T11:03:33.692Z,30.85
2023-03-06T11:06:06.579Z,30.00
2023-03-06T11:08:36.496Z,31.17
2023-03-06T11:11:07.119Z,28.05
2023-03-06T11:13:39.353Z,28.45
2023-03-06T11:16:18.171Z,29.35
2023-03-06T11:18:57.760Z,28.48
2023-03-06T11:21:31.399Z,27.25
2023-03-06T11:24:05.427Z,25.40
2023-03-06T11:26:42.961Z,25.27
2023-03-06T11:29:40.766Z,26.65
2023-03-06T11:32:15.848Z,25.30
2023-03-06T11:34:50.725Z,28.13
2023-03-06T11:37:30.917Z,27.17
2023-03-06T11:40:07.415Z,25.23
2023-03-06T11:42:41.864Z,24.52
2023-03-06T11:45:25.833Z,25.65
2023-03-06T11:48:02.761Z,29.90
2023-03-06T11:50:36.776Z,23.30
2023-03-06T11:53:12.010Z,21.67
2023-03-06T11:55:49.608Z,26.08
2023-03-06T11:58:49.869Z,27.05
2023-03-06T12:01:28.425Z,26.35
2023-03-06T12:06:51.671Z,22.48
2023-03-06T12:09:37.253Z,24.23
2023-03-06T12:12:29.092Z,24.83
2023-03-06T12:15:24.173Z,20.77
2023-03-06T12:18:10.380Z,22.38
2023-03-06T12:20:52.865Z,22.60
2023-03-06T12:23:41.541Z,23.30
2023-03-06T12:26:44.288Z,24.40
2023-03-06T12:29:25.966Z,30.05
2023-03-06T12:32:04.917Z,26.42
2023-03-06T12:35:05.969Z,24.55
2023-03-06T12:37:48.087Z,22.30
2023-03-06T12:40:40.371Z,22.88
2023-03-06T12:43:37.353Z,23.92
2023-03-06T12:46:12.678Z,25.73
2023-03-06T12:48:45.338Z,26.75
2023-03-06T12:53:47.621Z,25.75
2023-03-06T12:56:18.208Z,25.63
2023-03-06T12:58:50.524Z,23.80
2023-03-06T13:01:55.241Z,26.60
2023-03-06T13:04:58.001Z,22.80
2023-03-06T13:10:12.310Z,24.50
2023-03-06T13:12:55.749Z,21.25
2023-03-06T13:15:43.632Z,26.83
2023-03-06T13:18:49.098Z,27.60
2023-03-06T13:22:00.428Z,25.55
2023-03-06T13:24:33.184Z,28.65
2023-03-06T13:27:04.608Z,23.00
2023-03-06T13:30:07.920Z,26.65
2023-03-06T13:32:37.389Z,34.08
2023-03-06T13:35:49.534Z,30.90
2023-03-06T13:39:15.294Z,30.17
2023-03-06T13:41:59.690Z,33.63
2023-03-06T13:44:51.074Z,30.70
2023-03-06T13:48:05.808Z,29.80
2023-03-06T13:50:42.486Z,29.42
2023-03-06T13:53:42.539Z,30.35
2023-03-06T13:56:49.120Z,29.98
2023-03-06T14:00:09.381Z,31.95
2023-03-06T14:03:28.087Z,29.25
2023-03-06T14:05:59.044Z,29.88
2023-03-06T14:08:31.603Z,29.55
2023-03-06T14:13:46.626Z,31.38
2023-03-06T14:16:23.286Z,31.33
2023-03-06T14:18:54.711Z,34.85
2023-03-06T14:21:31.300Z,29.83
2023-03-06T14:24:01.530Z,26.98
2023-03-06T14:26:34.561Z,27.95
2023-03-06T14:29:04.248Z,26.75
2023-03-06T14:31:38.064Z,26.25
2023-03-06T14:34:08.137Z,22.50
2023-03-06T14:36:43.731Z,23.25
2023-03-06T14:39:14.559Z,26.10
2023-03-06T14:41:43.289Z,24.70
2023-03-06T14:44:18.071Z,24.55
2023-03-06T14:46:49.791Z,24.38
2023-03-06T14:49:20.684Z,23.33
2023-03-06T14:51:51.868Z,20.30
2023-03-06T14:54:23.063Z,25.25
2023-03-06T14:56:54.758Z,22.05
2023-03-06T14:59:26.864Z,25.20
2023-03-06T15:02:02.217Z,23.10
2023-03-06T15:04:36.619Z,21.20
2023-03-06T15:07:09.048Z,21.38
2023-03-06T15:09:38.985Z,27.65
2023-03-06T15:12:09.357Z,22.58
2023-03-06T15:14:40.343Z,20.27
2023-03-06T15:17:25.289Z,21.85
2023-03-06T15:19:55.990Z,21.73
2023-03-06T15:22:32.798Z,21.45
2023-03-06T15:25:27.734Z,23.67
2023-03-06T15:27:58.438Z,24.92
2023-03-06T15:30:30.275Z,21.38
2023-03-06T15:33:24.541Z,20.00
2023-03-06T15:35:57.164Z,21.05
2023-03-06T15:38:32.927Z,31.27
2023-03-06T15:41:03.868Z,22.27
2023-03-06T15:43:36.370Z,24.50
2023-03-06T15:46:07.570Z,20.75
2023-03-06T15:48:37.840Z,17.08
2023-03-06T15:51:07.036Z,17.42
2023-03-06T15:53:35.915Z,22.17
2023-03-06T15:56:04.938Z,17.77
2023-03-06T15:58:35.384Z,17.70
2023-03-06T16:01:04.597Z,18.75
2023-03-06T16:03:33.590Z,16.65
2023-03-06T16:06:03.829Z,20.33
2023-03-06T16:08:32.653Z,14.10
2023-03-06T16:11:01.618Z,17.15
2023-03-06T16:13:30.493Z,23.48
2023-03-06T16:15:59.349Z,16.55
2023-03-06T16:18:28.280Z,16.10
2023-03-06T16:20:57.034Z,16.67
2023-03-06T16:23:27.392Z,19.17
2023-03-06T16:25:56.380Z,15.32
2023-03-06T16:28:27.050Z,15.88
2023-03-06T16:31:00.077Z,21.63
2023-03-06T16:33:28.948Z,17.63
2023-03-06T16:35:57.903Z,15.10
2023-03-06T16:38:28.324Z,17.33
2023-03-06T16:40:57.107Z,15.10
2023-03-06T16:43:25.935Z,16.15
2023-03-06T16:45:54.873Z,17.25
2023-03-06T16:48:23.894Z,18.80
2023-03-06T16:50:52.719Z,19.20
2023-03-06T16:53:21.508Z,16.77
2023-03-06T16:55:51.603Z,16.65
2023-03-06T16:58:20.468Z,17.02
2023-03-06T17:00:49.370Z,16.48
2023-03-06T17:03:18.186Z,17.67
2023-03-06T17:05:46.964Z,21.40
2023-03-06T17:08:15.757Z,19.75
2023-03-06T17:10:44.464Z,17.98
2023-03-06T17:13:14.665Z,19.27
2023-03-06T17:15:56.156Z,18.80
2023-03-06T17:18:26.570Z,16.90
2023-03-06T17:20:56.056Z,22.00
2023-03-06T17:23:27.169Z,17.38
2023-03-06T17:26:04.504Z,20.35
2023-03-06T17:28:34.970Z,17.55
2023-03-06T17:31:05.372Z,15.38
2023-03-06T17:33:34.174Z,15.82
2023-03-06T17:36:02.957Z,15.02
2023-03-06T17:38:31.753Z,18.33
2023-03-06T17:41:03.814Z,21.88
2023-03-06T17:43:34.520Z,19.50
2023-03-06T17:46:07.988Z,17.50
2023-03-06T17:48:37.433Z,18.45
2023-03-06T17:51:07.937Z,15.48
2023-03-06T17:53:37.149Z,19.23
2023-03-06T17:56:07.092Z,15.27
2023-03-06T17:58:37.430Z,19.85
2023-03-06T18:01:12.192Z,20.00
2023-03-06T18:03:44.438Z,17.30
2023-03-06T18:06:13.490Z,17.98
2023-03-06T18:08:42.264Z,15.57
2023-03-06T18:11:12.118Z,16.92
2023-03-06T18:13:44.271Z,16.42
2023-03-06T18:16:15.427Z,18.40
2023-03-06T18:18:44.476Z,20.45
2023-03-06T18:21:15.166Z,17.38
2023-03-06T18:23:44.379Z,20.00
2023-03-06T18:26:15.585Z,21.25
2023-03-06T18:28:47.774Z,21.17
2023-03-06T18:31:18.229Z,24.27
2023-03-06T18:33:48.858Z,20.38
2023-03-06T18:36:17.982Z,15.45
2023-03-06T18:38:48.098Z,19.70
2023-03-06T18:41:18.662Z,17.90
2023-03-06T18:43:52.899Z,18.13
2023-03-06T18:46:22.288Z,15.07
2023-03-06T18:48:51.345Z,14.45
2023-03-06T18:51:20.665Z,14.25
2023-03-06T18:53:49.622Z,16.17
2023-03-06T18:56:20.010Z,15.68
2023-03-06T18:58:51.342Z,17.15
2023-03-06T19:01:20.586Z,13.95
2023-03-06T19:03:49.706Z,12.60
2023-03-06T19:06:18.952Z,14.93
2023-03-06T19:08:47.813Z,14.05
2023-03-06T19:11:18.678Z,14.82
2023-03-06T19:13:47.455Z,15.15
2023-03-06T19:16:23.715Z,12.90
2023-03-06T19:18:55.218Z,14.20
2023-03-06T19:21:25.685Z,15.05
2023-03-06T19:23:55.268Z,13.98
2023-03-06T19:26:24.255Z,19.23
2023-03-06T19:28:53.405Z,18.73
2023-03-06T19:31:25.985Z,14.68
2023-03-06T19:33:56.665Z,22.92
2023-03-06T19:36:29.910Z,16.65
2023-03-06T19:39:01.491Z,16.33
2023-03-06T19:41:30.642Z,13.32
2023-03-06T19:44:02.496Z,15.10
2023-03-06T19:46:33.124Z,15.20
2023-03-06T19:49:09.954Z,11.23
2023-03-06T19:51:39.017Z,11.27
2023-03-06T19:54:07.943Z,15.65
2023-03-06T19:56:36.844Z,15.38
2023-03-06T19:59:05.657Z,15.02
2023-03-06T20:01:35.929Z,15.00
2023-03-06T20:04:04.710Z,11.38
2023-03-06T20:06:36.688Z,12.75
2023-03-06T20:09:08.698Z,13.48
2023-03-06T20:11:38.091Z,10.75
2023-03-06T20:14:08.741Z,11.98
2023-03-06T20:16:39.241Z,13.95
2023-03-06T20:19:08.696Z,13.80
2023-03-06T20:21:38.578Z,15.60
2023-03-06T20:24:08.580Z,12.82
2023-03-06T20:26:38.639Z,16.23
2023-03-06T20:29:07.484Z,13.82
2023-03-06T20:31:36.675Z,11.65
2023-03-06T20:34:07.069Z,13.25
2023-03-06T20:36:37.568Z,11.30
2023-03-06T20:39:09.005Z,14.07
2023-03-06T20:41:38.210Z,10.95
2023-03-06T20:44:09.381Z,14.02
2023-03-06T20:46:38.206Z,13.38
2023-03-06T20:49:09.568Z,11.85
2023-03-06T20:51:40.127Z,16.08
2023-03-06T20:54:11.144Z,13.27
2023-03-06T20:56:41.374Z,11.43
2023-03-06T20:59:12.109Z,12.02
2023-03-06T21:01:44.997Z,12.00
2023-03-06T21:04:16.190Z,14.73
2023-03-06T21:06:46.872Z,13.07
2023-03-06T21:09:17.598Z,13.35
2023-03-06T21:11:46.861Z,9.80
2023-03-06T21:14:15.986Z,10.55
2023-03-06T21:16:45.014Z,9.32
2023-03-06T21:19:15.214Z,8.38
2023-03-06T21:21:44.055Z,13.80
2023-03-06T21:24:13.012Z,10.35
2023-03-06T21:26:41.839Z,9.73
2023-03-06T21:29:10.623Z,10.15
2023-03-06T21:31:41.024Z,9.95
2023-03-06T21:34:11.549Z,10.55
2023-03-06T21:36:42.942Z,8.82
2023-03-06T21:39:11.902Z,7.57
2023-03-06T21:41:40.868Z,7.40
2023-03-06T21:44:09.734Z,8.40
2023-03-06T21:46:38.545Z,12.93
2023-03-06T21:49:07.521Z,8.18
2023-03-06T21:51:36.282Z,12.98
2023-03-06T21:54:09.658Z,10.35
2023-03-06T21:56:38.464Z,11.18
2023-03-06T21:59:07.335Z,10.85
2023-03-06T22:01:36.488Z,10.18
2023-03-06T22:04:05.385Z,11.73
2023-03-06T22:06:34.339Z,9.85
2023-03-06T22:09:04.247Z,9.57
2023-03-06T22:11:37.089Z,8.93
2023-03-06T22:14:06.206Z,7.63
2023-03-06T22:16:35.255Z,8.15
2023-03-06T22:19:04.351Z,8.27
2023-03-06T22:21:33.423Z,9.63
2023-03-06T22:24:02.261Z,12.68
2023-03-06T22:26:31.510Z,11.82
2023-03-06T22:29:01.684Z,8.60
2023-03-06T22:31:30.616Z,12.07
2023-03-06T22:34:01.618Z,10.70
2023-03-06T22:36:31.558Z,10.23
2023-03-06T22:39:02.387Z,8.88
2023-03-06T22:41:31.837Z,8.68
2023-03-06T22:44:03.196Z,12.63
2023-03-06T22:46:33.275Z,10.80
2023-03-06T22:49:03.304Z,7.32
2023-03-06T22:51:34.276Z,8.52
2023-03-06T22:54:03.259Z,11.18
2023-03-06T22:56:32.327Z,11.30
2023-03-06T22:59:02.637Z,11.60
2023-03-06T23:01:33.171Z,9.27
2023-03-06T23:04:04.046Z,11.40
2023-03-06T23:06:34.629Z,10.15
2023-03-06T23:09:05.875Z,10.13
2023-03-06T23:11:53.221Z,8.23
2023-03-06T23:14:41.815Z,9.25
2023-03-06T23:17:29.183Z,7.10
2023-03-06T23:20:20.226Z,9.77
2023-03-06T23:23:07.648Z,9.20
2023-03-06T23:25:45.436Z,10.30
2023-03-06T23:28:14.359Z,9.10
2023-03-06T23:30:45.208Z,7.88
2023-03-06T23:33:13.942Z,9.80
2023-03-06T23:35:44.254Z,11.98
2023-03-06T23:38:13.050Z,9.88
2023-03-06T23:40:42.128Z,9.80
2023-03-06T23:43:11.072Z,10.23
2023-03-06T23:45:39.950Z,6.38
2023-03-06T23:48:10.257Z,5.40
2023-03-06T23:50:41.317Z,4.40
2023-03-06T23:53:10.106Z,7.13
2023-03-06T23:55:42.221Z,5.05
2023-03-06T23:58:11.240Z,4.78
